Hovedside
METAR-TAF:

METAR-TAF

Lufthavner :

Gafsa, Tunisia

breddegrad: 34-25N, lengdegrad: 008-49E, høyde over havet: 313 m

Gjeldene værobservasjon

Denne rapporten ble laget for 1 time og 2 minutter siden, klokken 09:00 UTC
Vind 2 kt fra skiftende retning
Temperatur 15°C
Luftfuktighet 48%
Trykk 1025 hPa
Sikt 10 km eller mer
Få skyer i en høyde av 2600 ft

METAR: DTTF 100900Z VRB02KT 9999 FEW026 15/04 Q1025 NOSIG

Tid: 11:02 (10:02 UTC)

Varsel

Denne rapporten ble laget for 1 time og 2 minutter siden, klokken 09:00 UTC
Varsel gyldig fra 10. klokken 10 UTC til 10. klokken 19 UTC
Vind 4 kt fra skiftende retning
Sikt 10 km eller mer
Få skyer i en høyde av 2600 ft
Blir
fra 10. klokken 12 UTC til 10. klokken 14 UTC
Vind 8 kt fra Nord-nordvest

TAF: DTTF 100900Z 1010/1019 VRB04KT 9999 FEW026 BECMG 1012/1014 33008KT

Værobservasjoner og værvarsel for over 4000 flyplasser (METAR- og TAF-rapporter).

Tilgjengelige stasjoner er representert av de røde og gule prikkene på kartet.

Hold musepekeren over prikken for å se navnet på stasjonen.

Klikk så for å se værobservasjoner og -varsler.

For å forandre kartet kan du klikke på den grønne knappen med svart kryss for å zoome inn, på den grønne knappen med strek for å zoome ut, eller på de grønne pilene for å se tilstøtende kart.


METAR-TAF: